Time;durP1;ratioP1;P1;durP2;ratioP2;P2;SDS_P1;SDS_P2;PMS_P1;PMS_P2;Temp;Humidity;BMP_temperature;BMP_pressure;BME280_temperature;BME280_humidity;BME280_pressure;Samples;Min_cycle;Max_cycle;Signal;HPM_P1;HPM_P2
2022/09/27 00:01:58;;;;;;;2.90;1.67;;;;;;;;;;5117532;28;20459;-70
2022/09/27 00:04:25;;;;;;;4.37;2.00;;;;;;;;;;5119372;28;20458;-69
2022/09/27 00:06:53;;;;;;;3.20;1.43;;;;;;;;;;5116532;28;20850;-69
2022/09/27 00:09:20;;;;;;;3.83;1.93;;;;;;;;;;5129932;27;20450;-70
2022/09/27 00:11:50;;;;;;;2.57;1.57;;;;;;;;;;5136534;27;20465;-70
2022/09/27 00:14:20;;;;;;;7.83;2.13;;;;;;;;;;5124307;28;20506;-70
2022/09/27 00:16:48;;;;;;;5.30;2.10;;;;;;;;;;5124031;27;20446;-69
2022/09/27 00:19:16;;;;;;;2.60;1.80;;;;;;;;;;5125848;27;20430;-69
2022/09/27 00:21:43;;;;;;;3.03;2.30;;;;;;;;;;5124928;28;20441;-69
2022/09/27 00:24:13;;;;;;;3.00;2.13;;;;;;;;;;5124890;27;20478;-70
2022/09/27 00:26:43;;;;;;;2.93;1.90;;;;;;;;;;5123939;28;20442;-70
2022/09/27 00:29:10;;;;;;;4.60;3.47;;;;;;;;;;5124974;27;20918;-70
2022/09/27 00:31:37;;;;;;;2.80;1.70;;;;;;;;;;5129095;28;20531;-70
2022/09/27 00:34:05;;;;;;;4.03;1.90;;;;;;;;;;5135650;27;20502;-70
2022/09/27 00:36:32;;;;;;;3.23;2.10;;;;;;;;;;5136266;27;20741;-70
2022/09/27 00:39:00;;;;;;;3.80;1.90;;;;;;;;;;5136234;27;20456;-70
2022/09/27 00:41:29;;;;;;;2.80;1.87;;;;;;;;;;5136689;27;20863;-70
2022/09/27 00:43:58;;;;;;;4.80;2.00;;;;;;;;;;5135776;27;20450;-70
2022/09/27 00:46:28;;;;;;;7.03;2.50;;;;;;;;;;5136100;27;20878;-70
2022/09/27 00:49:02;;;;;;;4.00;2.50;;;;;;;;;;5135609;27;20442;-70
2022/09/27 00:51:30;;;;;;;3.00;2.23;;;;;;;;;;5136232;27;20452;-70
2022/09/27 00:53:58;;;;;;;4.17;2.23;;;;;;;;;;5135615;27;20492;-70
2022/09/27 00:56:29;;;;;;;4.10;2.67;;;;;;;;;;5135295;27;20449;-69
2022/09/27 00:58:59;;;;;;;2.80;1.90;;;;;;;;;;5135554;27;20711;-70
2022/09/27 01:01:29;;;;;;;6.60;2.10;;;;;;;;;;5135449;27;20469;-69
2022/09/27 01:04:01;;;;;;;6.93;2.70;;;;;;;;;;5135027;27;20467;-70
2022/09/27 01:06:28;;;;;;;7.83;2.77;;;;;;;;;;5135040;27;20442;-70
2022/09/27 01:08:55;;;;;;;3.20;2.07;;;;;;;;;;5134679;27;20510;-70
2022/09/27 01:11:28;;;;;;;3.20;2.40;;;;;;;;;;5135122;27;20461;-70
2022/09/27 01:14:11;;;;;;;3.93;1.97;;;;;;;;;;5135487;27;20489;-71
2022/09/27 01:16:45;;;;;;;3.20;1.63;;;;;;;;;;5135550;27;20464;-70
2022/09/27 01:19:18;;;;;;;4.67;2.50;;;;;;;;;;5118134;28;20453;-69
2022/09/27 01:21:50;;;;;;;2.90;1.90;;;;;;;;;;5135865;27;20454;-70
2022/09/27 01:24:36;;;;;;;3.20;2.10;;;;;;;;;;5136035;27;20544;-69
2022/09/27 01:27:31;;;;;;;3.83;2.00;;;;;;;;;;5135486;27;20450;-70
2022/09/27 01:30:04;;;;;;;3.43;2.27;;;;;;;;;;5135411;27;20456;-69
2022/09/27 01:32:34;;;;;;;3.13;2.17;;;;;;;;;;5134622;27;20538;-70
2022/09/27 01:35:03;;;;;;;4.83;2.07;;;;;;;;;;5135148;27;20486;-69
2022/09/27 01:37:37;;;;;;;4.60;2.00;;;;;;;;;;5134411;27;20461;-69
2022/09/27 01:40:10;;;;;;;2.77;2.00;;;;;;;;;;5135705;27;20703;-69
2022/09/27 01:42:39;;;;;;;3.50;2.30;;;;;;;;;;5135601;27;20453;-69
2022/09/27 01:45:10;;;;;;;3.47;1.70;;;;;;;;;;5135801;27;20477;-69
2022/09/27 01:47:41;;;;;;;3.27;2.07;;;;;;;;;;5135080;27;20489;-70
2022/09/27 01:50:10;;;;;;;3.97;2.40;;;;;;;;;;5135353;27;20557;-69
2022/09/27 01:52:39;;;;;;;3.17;2.13;;;;;;;;;;5134475;27;20461;-70
2022/09/27 01:55:08;;;;;;;2.97;2.10;;;;;;;;;;5134897;27;20486;-69
2022/09/27 01:57:37;;;;;;;3.77;1.90;;;;;;;;;;5134343;27;20462;-69
2022/09/27 02:00:06;;;;;;;4.63;2.33;;;;;;;;;;5134606;27;20782;-69
2022/09/27 02:02:35;;;;;;;6.43;2.17;;;;;;;;;;5138000;27;20457;-69
2022/09/27 02:05:04;;;;;;;5.43;1.87;;;;;;;;;;5138470;27;20773;-69
2022/09/27 02:07:41;;;;;;;4.47;2.70;;;;;;;;;;5138126;27;20500;-69
2022/09/27 02:10:10;;;;;;;4.90;3.00;;;;;;;;;;5138174;27;20730;-69
2022/09/27 02:12:40;;;;;;;3.77;2.30;;;;;;;;;;5138183;27;20921;-69
2022/09/27 02:15:10;;;;;;;6.80;2.57;;;;;;;;;;5137918;27;20545;-69
2022/09/27 02:17:41;;;;;;;3.73;2.10;;;;;;;;;;5137810;27;20449;-69
2022/09/27 02:20:13;;;;;;;4.77;2.47;;;;;;;;;;5138079;27;20821;-69
2022/09/27 02:22:42;;;;;;;3.93;1.90;;;;;;;;;;5137848;27;20796;-69
2022/09/27 02:25:17;;;;;;;4.93;3.43;;;;;;;;;;5137341;27;20462;-70
2022/09/27 02:27:50;;;;;;;3.77;2.40;;;;;;;;;;5138180;27;20457;-70
2022/09/27 02:30:18;;;;;;;4.70;2.47;;;;;;;;;;5138060;27;20481;-70
2022/09/27 02:32:45;;;;;;;3.63;2.50;;;;;;;;;;5138067;27;20458;-70
2022/09/27 02:35:16;;;;;;;3.70;2.60;;;;;;;;;;5138516;27;20866;-69
2022/09/27 02:37:43;;;;;;;3.90;1.93;;;;;;;;;;5137439;27;20465;-69
2022/09/27 02:40:10;;;;;;;5.20;2.30;;;;;;;;;;5137623;27;20542;-70
2022/09/27 02:42:38;;;;;;;4.17;1.93;;;;;;;;;;5136875;27;20568;-70
2022/09/27 02:45:06;;;;;;;4.50;2.73;;;;;;;;;;5137809;27;20464;-69
2022/09/27 02:47:38;;;;;;;3.40;2.50;;;;;;;;;;5137914;27;20458;-69
2022/09/27 02:50:15;;;;;;;8.13;2.70;;;;;;;;;;5137851;27;20959;-69
2022/09/27 02:52:59;;;;;;;3.50;2.50;;;;;;;;;;5137699;27;20873;-69
2022/09/27 02:55:35;;;;;;;3.77;2.23;;;;;;;;;;5138240;27;20546;-70
2022/09/27 02:58:11;;;;;;;3.07;2.40;;;;;;;;;;5138519;27;20473;-69
2022/09/27 03:01:01;;;;;;;4.57;2.60;;;;;;;;;;5136945;27;20477;-69
2022/09/27 03:03:44;;;;;;;2.80;2.23;;;;;;;;;;5137455;27;20477;-69
2022/09/27 03:06:18;;;;;;;4.37;2.37;;;;;;;;;;5137722;27;20476;-69
2022/09/27 03:08:51;;;;;;;5.53;2.20;;;;;;;;;;5137417;27;20444;-69
2022/09/27 03:11:18;;;;;;;7.37;3.10;;;;;;;;;;5137057;27;20506;-70
2022/09/27 03:13:45;;;;;;;3.40;2.50;;;;;;;;;;5137017;27;20997;-70
2022/09/27 03:16:14;;;;;;;3.20;2.67;;;;;;;;;;5137424;27;20457;-70
2022/09/27 03:18:42;;;;;;;3.93;2.60;;;;;;;;;;5137184;27;20507;-69
2022/09/27 03:21:09;;;;;;;6.40;2.87;;;;;;;;;;5137423;27;20446;-69
2022/09/27 03:23:36;;;;;;;5.43;2.70;;;;;;;;;;5137485;27;20466;-70
2022/09/27 03:26:04;;;;;;;4.80;2.47;;;;;;;;;;5136706;27;20864;-70
2022/09/27 03:28:31;;;;;;;4.93;2.50;;;;;;;;;;5137387;27;20518;-70
2022/09/27 03:30:58;;;;;;;4.10;2.77;;;;;;;;;;5136519;27;20462;-70
2022/09/27 03:33:25;;;;;;;4.50;2.43;;;;;;;;;;5136539;27;21028;-69
2022/09/27 03:35:54;;;;;;;3.60;2.63;;;;;;;;;;5136262;27;20490;-70
2022/09/27 03:38:21;;;;;;;3.20;2.40;;;;;;;;;;5137009;27;20461;-70
2022/09/27 03:40:49;;;;;;;3.60;2.60;;;;;;;;;;5136818;27;20446;-70
2022/09/27 03:43:17;;;;;;;5.17;2.60;;;;;;;;;;5136973;27;20749;-70
2022/09/27 03:45:47;;;;;;;3.77;2.60;;;;;;;;;;5137326;27;20462;-70
2022/09/27 03:48:20;;;;;;;6.63;2.80;;;;;;;;;;5136861;27;20494;-70
2022/09/27 03:50:47;;;;;;;3.77;2.97;;;;;;;;;;5136705;27;20462;-70
2022/09/27 03:53:15;;;;;;;5.17;2.50;;;;;;;;;;5135859;27;20454;-70
2022/09/27 03:55:42;;;;;;;56.50;3.43;;;;;;;;;;5136350;27;20548;-70
2022/09/27 03:58:10;;;;;;;4.87;2.93;;;;;;;;;;5136904;27;20474;-70
2022/09/27 04:00:37;;;;;;;4.80;2.77;;;;;;;;;;5136396;27;20730;-69
2022/09/27 04:03:04;;;;;;;3.23;2.50;;;;;;;;;;5136540;27;20481;-70
2022/09/27 04:05:32;;;;;;;5.13;2.53;;;;;;;;;;5136186;27;20461;-70
2022/09/27 04:07:59;;;;;;;4.20;2.70;;;;;;;;;;5135915;27;20472;-70
2022/09/27 04:10:26;;;;;;;3.20;2.57;;;;;;;;;;5131308;27;20878;-70
2022/09/27 04:12:53;;;;;;;2.63;1.93;;;;;;;;;;5136510;27;20791;-70
2022/09/27 04:15:21;;;;;;;2.93;2.17;;;;;;;;;;5136799;27;20489;-70
2022/09/27 04:17:50;;;;;;;4.50;3.60;;;;;;;;;;5136007;27;21416;-70
2022/09/27 04:20:17;;;;;;;3.13;2.40;;;;;;;;;;5133980;27;20881;-70
2022/09/27 04:22:44;;;;;;;3.73;2.60;;;;;;;;;;5135400;27;20461;-70
2022/09/27 04:25:11;;;;;;;4.40;2.70;;;;;;;;;;5135380;27;20560;-70
2022/09/27 04:27:45;;;;;;;3.60;2.60;;;;;;;;;;5135901;27;20865;-70
2022/09/27 04:30:12;;;;;;;3.17;2.47;;;;;;;;;;5135092;27;20453;-69
2022/09/27 04:32:41;;;;;;;4.00;2.57;;;;;;;;;;5135240;27;20474;-69
2022/09/27 04:37:54;;;;;;;3.43;2.47;;;;;;;;;;5134911;27;21107;-69
2022/09/27 04:40:22;;;;;;;5.57;3.63;;;;;;;;;;5135526;27;20864;-69
2022/09/27 04:42:49;;;;;;;4.33;2.83;;;;;;;;;;5134455;27;20446;-70
2022/09/27 04:45:17;;;;;;;4.17;3.07;;;;;;;;;;5134613;27;20457;-69
2022/09/27 04:47:44;;;;;;;3.60;3.07;;;;;;;;;;5135149;27;20541;-69
2022/09/27 04:50:12;;;;;;;3.97;3.10;;;;;;;;;;5134611;27;20489;-70
2022/09/27 04:52:39;;;;;;;6.13;3.93;;;;;;;;;;5134266;27;20453;-70
2022/09/27 04:55:07;;;;;;;5.30;3.37;;;;;;;;;;5133894;27;20486;-70
2022/09/27 04:57:35;;;;;;;4.80;2.90;;;;;;;;;;5134233;27;20473;-70
2022/09/27 05:00:02;;;;;;;4.37;3.23;;;;;;;;;;5134792;27;20467;-70
2022/09/27 05:02:30;;;;;;;4.10;3.30;;;;;;;;;;5133685;27;20450;-70
2022/09/27 05:04:58;;;;;;;4.30;3.57;;;;;;;;;;5133379;27;20753;-70
2022/09/27 05:07:26;;;;;;;5.27;4.10;;;;;;;;;;5132429;27;20501;-70
2022/09/27 05:09:53;;;;;;;4.27;3.60;;;;;;;;;;5132544;27;20496;-70
2022/09/27 05:12:21;;;;;;;6.20;3.20;;;;;;;;;;5132509;27;20529;-70
2022/09/27 05:14:48;;;;;;;4.60;3.17;;;;;;;;;;5131539;27;20496;-69
2022/09/27 05:17:15;;;;;;;5.87;3.90;;;;;;;;;;5131972;27;20434;-70
2022/09/27 05:19:45;;;;;;;6.17;3.80;;;;;;;;;;5130395;27;20476;-70
2022/09/27 05:22:12;;;;;;;7.30;3.87;;;;;;;;;;5132299;27;21015;-70
2022/09/27 05:24:40;;;;;;;4.93;3.70;;;;;;;;;;5131298;27;20466;-70
2022/09/27 05:27:08;;;;;;;8.00;3.60;;;;;;;;;;5130380;27;20526;-70
2022/09/27 05:29:35;;;;;;;5.77;3.70;;;;;;;;;;5132112;27;20480;-70
2022/09/27 05:32:03;;;;;;;6.83;4.33;;;;;;;;;;5132238;27;20529;-70
2022/09/27 05:34:31;;;;;;;7.40;4.57;;;;;;;;;;5130971;27;20489;-70
2022/09/27 05:36:58;;;;;;;20.37;11.77;;;;;;;;;;5134543;27;20450;-70
2022/09/27 05:39:25;;;;;;;4.80;3.97;;;;;;;;;;5136316;27;20445;-70
2022/09/27 05:41:55;;;;;;;5.03;3.63;;;;;;;;;;5132289;27;20461;-70
2022/09/27 05:44:22;;;;;;;4.93;4.17;;;;;;;;;;5134620;27;20457;-70
2022/09/27 05:46:50;;;;;;;4.80;4.07;;;;;;;;;;5132865;27;20446;-70
2022/09/27 05:49:17;;;;;;;5.13;4.00;;;;;;;;;;5134969;27;20514;-71
2022/09/27 05:51:44;;;;;;;7.57;4.60;;;;;;;;;;5135920;27;20514;-71
2022/09/27 05:54:11;;;;;;;5.57;4.33;;;;;;;;;;5134107;27;20442;-71
2022/09/27 05:56:39;;;;;;;7.53;3.87;;;;;;;;;;5126975;27;20478;-71
2022/09/27 05:59:06;;;;;;;5.20;4.00;;;;;;;;;;5114982;28;20471;-71
2022/09/27 06:01:34;;;;;;;5.17;3.90;;;;;;;;;;5115494;28;20557;-71
2022/09/27 06:04:01;;;;;;;6.00;4.43;;;;;;;;;;5115304;28;20448;-71
2022/09/27 06:06:28;;;;;;;5.33;3.90;;;;;;;;;;5114714;28;20466;-71
2022/09/27 06:08:56;;;;;;;5.40;3.47;;;;;;;;;;5114743;28;20478;-71
2022/09/27 06:11:24;;;;;;;3.73;3.10;;;;;;;;;;5114698;28;20459;-71
2022/09/27 06:13:51;;;;;;;5.43;3.43;;;;;;;;;;5119276;28;20483;-70
2022/09/27 06:16:19;;;;;;;5.03;3.67;;;;;;;;;;5115030;28;20490;-70
2022/09/27 06:18:50;;;;;;;6.10;3.50;;;;;;;;;;5113312;28;20462;-71
2022/09/27 06:21:17;;;;;;;6.73;4.17;;;;;;;;;;5113165;28;20451;-71
2022/09/27 06:23:45;;;;;;;3.80;3.20;;;;;;;;;;5117308;28;20519;-70
2022/09/27 06:26:12;;;;;;;3.60;2.90;;;;;;;;;;5115110;28;20515;-71
2022/09/27 06:28:39;;;;;;;3.53;2.73;;;;;;;;;;5134460;27;20496;-71
2022/09/27 06:31:08;;;;;;;5.90;2.97;;;;;;;;;;5116308;28;20491;-71
2022/09/27 06:33:36;;;;;;;3.53;2.80;;;;;;;;;;5122364;27;20522;-70
2022/09/27 06:36:04;;;;;;;4.80;3.10;;;;;;;;;;5135376;27;20493;-70
2022/09/27 06:38:32;;;;;;;4.90;3.57;;;;;;;;;;5135554;27;20476;-70
2022/09/27 06:41:15;;;;;;;4.90;3.77;;;;;;;;;;5127348;28;20462;-72
2022/09/27 06:43:42;;;;;;;5.40;3.60;;;;;;;;;;5128428;27;20465;-72
2022/09/27 06:46:09;;;;;;;4.07;2.80;;;;;;;;;;5113975;28;20498;-70
2022/09/27 06:48:41;;;;;;;4.73;3.60;;;;;;;;;;5115710;28;21050;-71
2022/09/27 06:51:08;;;;;;;4.43;3.43;;;;;;;;;;5115325;28;20531;-71
2022/09/27 06:53:36;;;;;;;4.67;2.80;;;;;;;;;;5121123;28;20457;-70
2022/09/27 06:56:03;;;;;;;18.53;13.63;;;;;;;;;;5132934;27;20482;-70
2022/09/27 07:01:17;;;;;;;5.37;3.50;;;;;;;;;;5116483;28;20457;-70
2022/09/27 07:03:49;;;;;;;6.00;3.70;;;;;;;;;;5119250;28;20459;-70
2022/09/27 07:06:19;;;;;;;5.67;3.00;;;;;;;;;;5118550;28;20498;-71
2022/09/27 07:08:53;;;;;;;5.00;3.20;;;;;;;;;;5127633;28;20462;-71
2022/09/27 07:11:22;;;;;;;7.93;3.40;;;;;;;;;;5125880;27;20445;-71
2022/09/27 07:13:53;;;;;;;4.00;3.10;;;;;;;;;;5127763;28;20610;-70
2022/09/27 07:16:20;;;;;;;5.90;3.60;;;;;;;;;;5114465;27;20486;-70
2022/09/27 07:18:54;;;;;;;3.83;2.70;;;;;;;;;;5113404;28;20454;-69
2022/09/27 07:21:23;;;;;;;5.90;3.20;;;;;;;;;;5116420;28;20544;-70
2022/09/27 07:23:50;;;;;;;6.90;3.10;;;;;;;;;;5117465;28;20455;-70
2022/09/27 07:26:19;;;;;;;8.20;4.30;;;;;;;;;;5115092;28;20902;-70
2022/09/27 07:28:46;;;;;;;5.90;3.13;;;;;;;;;;5116195;28;20564;-69
2022/09/27 07:31:14;;;;;;;5.07;3.37;;;;;;;;;;5120770;27;20457;-69
2022/09/27 07:33:41;;;;;;;7.70;2.33;;;;;;;;;;5117298;28;20884;-69
2022/09/27 07:36:10;;;;;;;4.63;3.00;;;;;;;;;;5119530;27;20490;-70
2022/09/27 07:38:37;;;;;;;6.77;3.90;;;;;;;;;;5121755;28;20615;-70
2022/09/27 07:41:24;;;;;;;6.30;3.10;;;;;;;;;;5133567;27;20773;-70
2022/09/27 07:43:53;;;;;;;3.80;2.37;;;;;;;;;;5133322;27;20458;-70
2022/09/27 07:46:20;;;;;;;2.70;1.73;;;;;;;;;;5125258;27;20530;-70
2022/09/27 07:48:49;;;;;;;8.27;5.70;;;;;;;;;;5121228;27;20461;-68
2022/09/27 07:51:17;;;;;;;7.10;2.10;;;;;;;;;;5126781;28;20495;-69
2022/09/27 07:53:47;;;;;;;2.47;1.23;;;;;;;;;;5112905;27;20566;-70
2022/09/27 07:56:34;;;;;;;3.33;1.80;;;;;;;;;;5122611;27;20572;-71
2022/09/27 07:59:01;;;;;;;4.20;2.00;;;;;;;;;;5109827;28;20467;-70
2022/09/27 08:01:33;;;;;;;4.63;2.20;;;;;;;;;;5124035;27;20496;-70
2022/09/27 08:04:04;;;;;;;2.23;1.60;;;;;;;;;;5114943;28;20840;-69
2022/09/27 08:06:32;;;;;;;3.30;1.30;;;;;;;;;;5112015;28;20466;-69
2022/09/27 08:09:00;;;;;;;4.10;2.10;;;;;;;;;;5128401;28;20466;-69
2022/09/27 08:11:29;;;;;;;3.27;1.97;;;;;;;;;;5123803;27;20467;-69
2022/09/27 08:13:58;;;;;;;3.00;2.07;;;;;;;;;;5114102;27;20557;-71
2022/09/27 08:16:25;;;;;;;2.00;1.03;;;;;;;;;;5116992;28;20585;-70
2022/09/27 08:18:52;;;;;;;3.40;1.30;;;;;;;;;;5132490;27;20441;-71
2022/09/27 08:21:31;;;;;;;3.47;2.40;;;;;;;;;;5119220;28;20477;-69
2022/09/27 08:24:00;;;;;;;3.43;2.00;;;;;;;;;;5117654;28;20549;-69
2022/09/27 08:26:28;;;;;;;6.23;2.40;;;;;;;;;;5113487;28;20478;-69
2022/09/27 08:29:05;;;;;;;2.37;1.00;;;;;;;;;;5119264;28;20454;-70
2022/09/27 08:31:32;;;;;;;4.63;1.50;;;;;;;;;;5129876;27;20458;-70
2022/09/27 08:34:00;;;;;;;2.13;0.80;;;;;;;;;;5117030;28;20874;-69
2022/09/27 08:36:31;;;;;;;2.23;1.27;;;;;;;;;;5130299;27;20493;-71
2022/09/27 08:39:01;;;;;;;2.00;1.10;;;;;;;;;;5129425;27;20469;-70
2022/09/27 08:41:33;;;;;;;2.97;1.80;;;;;;;;;;5133939;27;20574;-70
2022/09/27 08:44:07;;;;;;;3.37;1.50;;;;;;;;;;5130826;27;20488;-70
2022/09/27 08:46:42;;;;;;;4.27;1.53;;;;;;;;;;5121225;27;20458;-71
2022/09/27 08:49:23;;;;;;;1.97;1.03;;;;;;;;;;5129151;27;20545;-70
2022/09/27 08:51:55;;;;;;;4.00;2.00;;;;;;;;;;5114521;28;20455;-71
2022/09/27 08:54:24;;;;;;;2.10;1.33;;;;;;;;;;5114636;27;20596;-70
2022/09/27 08:56:53;;;;;;;3.40;1.13;;;;;;;;;;5129251;27;20817;-69
2022/09/27 08:59:23;;;;;;;1.87;0.93;;;;;;;;;;5131451;27;20469;-70
2022/09/27 09:01:51;;;;;;;2.60;1.33;;;;;;;;;;5133053;27;20464;-69
2022/09/27 09:04:22;;;;;;;7.30;1.57;;;;;;;;;;5132783;27;20803;-70
2022/09/27 09:06:58;;;;;;;4.63;1.20;;;;;;;;;;5134248;27;20510;-71
2022/09/27 09:09:35;;;;;;;2.20;1.20;;;;;;;;;;5124970;27;20461;-71
2022/09/27 09:15:04;;;;;;;2.80;1.50;;;;;;;;;;5112600;28;20531;-70
2022/09/27 09:17:45;;;;;;;4.17;2.70;;;;;;;;;;5118936;27;20489;-70
2022/09/27 09:20:18;;;;;;;3.40;1.53;;;;;;;;;;5131713;27;20477;-70
2022/09/27 09:22:52;;;;;;;3.10;1.40;;;;;;;;;;5129764;27;20515;-70
2022/09/27 09:25:30;;;;;;;1.80;1.03;;;;;;;;;;5124746;27;20466;-70
2022/09/27 09:28:15;;;;;;;2.40;1.60;;;;;;;;;;5125219;27;20457;-70
2022/09/27 09:30:52;;;;;;;4.37;1.63;;;;;;;;;;5127797;27;20472;-70
2022/09/27 09:33:23;;;;;;;2.20;1.20;;;;;;;;;;5115407;28;20695;-68
2022/09/27 09:35:59;;;;;;;2.87;1.70;;;;;;;;;;5120516;27;20544;-69
2022/09/27 09:38:44;;;;;;;3.80;1.90;;;;;;;;;;5128762;27;20458;-69
2022/09/27 09:41:30;;;;;;;3.20;1.70;;;;;;;;;;5129330;27;20560;-68
2022/09/27 09:44:06;;;;;;;2.50;1.27;;;;;;;;;;5131260;27;20450;-69
2022/09/27 09:46:52;;;;;;;2.17;1.50;;;;;;;;;;5118395;28;20458;-68
2022/09/27 09:49:24;;;;;;;3.20;1.80;;;;;;;;;;5129607;27;20850;-68
2022/09/27 09:51:57;;;;;;;2.70;1.60;;;;;;;;;;5132223;27;20493;-69
2022/09/27 09:54:27;;;;;;;2.97;1.50;;;;;;;;;;5128565;27;20611;-69
2022/09/27 09:57:00;;;;;;;2.43;1.27;;;;;;;;;;5122367;27;20442;-69
2022/09/27 09:59:30;;;;;;;3.30;1.60;;;;;;;;;;5122232;28;20453;-69
2022/09/27 10:02:03;;;;;;;3.33;1.70;;;;;;;;;;5131576;27;20458;-69
2022/09/27 10:04:33;;;;;;;2.17;1.23;;;;;;;;;;5120937;27;20523;-69
2022/09/27 10:07:01;;;;;;;3.30;1.90;;;;;;;;;;5127652;27;20837;-69
2022/09/27 10:09:29;;;;;;;2.83;1.67;;;;;;;;;;5125409;27;20473;-69
2022/09/27 10:11:57;;;;;;;2.47;1.77;;;;;;;;;;5121640;27;20442;-69
2022/09/27 10:14:27;;;;;;;4.10;2.80;;;;;;;;;;5118094;28;20467;-69
2022/09/27 10:16:55;;;;;;;4.63;1.73;;;;;;;;;;5132791;27;20549;-69
2022/09/27 10:19:29;;;;;;;2.63;1.70;;;;;;;;;;5124812;27;20462;-71
2022/09/27 10:22:00;;;;;;;2.63;1.67;;;;;;;;;;5112183;28;20825;-69
2022/09/27 10:24:27;;;;;;;2.27;1.13;;;;;;;;;;5125781;27;20465;-70
2022/09/27 10:26:58;;;;;;;4.30;2.23;;;;;;;;;;5116120;28;20499;-69
2022/09/27 10:29:32;;;;;;;4.60;2.40;;;;;;;;;;5120923;27;20586;-70
2022/09/27 10:32:00;;;;;;;2.83;2.03;;;;;;;;;;5117378;28;20466;-69
2022/09/27 10:34:29;;;;;;;3.90;2.10;;;;;;;;;;5124720;27;20495;-69
2022/09/27 10:37:07;;;;;;;3.80;2.10;;;;;;;;;;5132923;27;20474;-70
2022/09/27 10:39:36;;;;;;;2.87;2.07;;;;;;;;;;5127393;28;21880;-69
2022/09/27 10:42:20;;;;;;;2.83;1.67;;;;;;;;;;5116717;28;20797;-69
2022/09/27 10:44:50;;;;;;;2.90;1.70;;;;;;;;;;5125806;27;20461;-69
2022/09/27 10:47:21;;;;;;;3.47;1.97;;;;;;;;;;5136360;27;20480;-68
2022/09/27 10:49:51;;;;;;;2.10;1.20;;;;;;;;;;5126457;28;20465;-69
2022/09/27 10:52:23;;;;;;;2.73;1.57;;;;;;;;;;5115267;28;20478;-69
2022/09/27 10:54:58;;;;;;;3.27;1.97;;;;;;;;;;5123135;27;20493;-69
2022/09/27 10:57:27;;;;;;;3.30;1.30;;;;;;;;;;5126970;28;20564;-69
2022/09/27 10:59:59;;;;;;;2.33;1.70;;;;;;;;;;5136463;27;20499;-69
2022/09/27 11:02:28;;;;;;;3.23;1.20;;;;;;;;;;5115475;28;20486;-68
2022/09/27 11:05:13;;;;;;;3.00;1.70;;;;;;;;;;5114883;28;20458;-69
2022/09/27 11:07:52;;;;;;;2.60;1.60;;;;;;;;;;5117087;27;20467;-69
2022/09/27 11:10:27;;;;;;;4.50;2.03;;;;;;;;;;5115353;28;20446;-68
2022/09/27 11:13:13;;;;;;;2.53;1.50;;;;;;;;;;5115013;28;20455;-69
2022/09/27 11:15:53;;;;;;;1.97;1.30;;;;;;;;;;5120605;28;20904;-69
2022/09/27 11:18:25;;;;;;;2.47;1.57;;;;;;;;;;5126491;27;20458;-69
2022/09/27 11:20:54;;;;;;;4.57;1.30;;;;;;;;;;5118751;28;20457;-68
2022/09/27 11:23:27;;;;;;;2.53;1.20;;;;;;;;;;5120523;27;20485;-68
2022/09/27 11:26:09;;;;;;;2.40;1.50;;;;;;;;;;5116162;28;20564;-68
2022/09/27 11:28:45;;;;;;;3.37;1.90;;;;;;;;;;5130509;28;20469;-68
2022/09/27 11:31:21;;;;;;;2.13;1.27;;;;;;;;;;5134792;27;20715;-68
2022/09/27 11:33:54;;;;;;;2.27;1.30;;;;;;;;;;5134957;27;20461;-69
2022/09/27 11:36:28;;;;;;;3.03;1.60;;;;;;;;;;5131272;27;20511;-69
2022/09/27 11:39:05;;;;;;;1.60;1.07;;;;;;;;;;5134961;27;20464;-69
2022/09/27 11:41:41;;;;;;;3.07;1.70;;;;;;;;;;5128423;28;20549;-69
2022/09/27 11:44:17;;;;;;;4.37;2.63;;;;;;;;;;5120088;28;20458;-68
2022/09/27 11:46:47;;;;;;;3.37;2.60;;;;;;;;;;5098564;28;20462;-68
2022/09/27 11:49:29;;;;;;;3.90;1.50;;;;;;;;;;5094439;28;20523;-68
2022/09/27 11:52:02;;;;;;;4.13;2.30;;;;;;;;;;5112383;28;20513;-66
2022/09/27 11:54:35;;;;;;;2.40;1.20;;;;;;;;;;5124664;27;20477;-68
2022/09/27 11:57:06;;;;;;;3.37;2.10;;;;;;;;;;5113494;28;21096;-69
2022/09/27 11:59:49;;;;;;;2.23;1.53;;;;;;;;;;5123257;27;21301;-69
2022/09/27 12:02:25;;;;;;;2.67;1.73;;;;;;;;;;5135285;27;20465;-69
2022/09/27 12:05:00;;;;;;;2.70;1.40;;;;;;;;;;5134495;27;20881;-69
2022/09/27 12:07:36;;;;;;;5.80;2.50;;;;;;;;;;5133143;27;20509;-68
2022/09/27 12:10:06;;;;;;;2.77;1.90;;;;;;;;;;5134201;27;20441;-68
2022/09/27 12:12:39;;;;;;;3.60;1.80;;;;;;;;;;5133185;27;20510;-69
2022/09/27 12:15:17;;;;;;;2.53;1.70;;;;;;;;;;5117319;27;20481;-68
2022/09/27 12:17:50;;;;;;;3.17;1.57;;;;;;;;;;5113748;27;20511;-70
2022/09/27 12:20:21;;;;;;;3.37;2.00;;;;;;;;;;5112749;28;20461;-70
2022/09/27 12:22:51;;;;;;;3.20;1.70;;;;;;;;;;5112688;28;20863;-68
2022/09/27 12:25:19;;;;;;;2.97;1.17;;;;;;;;;;5113487;28;21034;-70
2022/09/27 12:27:48;;;;;;;2.20;1.30;;;;;;;;;;5115901;28;20762;-70
2022/09/27 12:30:15;;;;;;;2.70;1.40;;;;;;;;;;5115171;28;20466;-68
2022/09/27 12:32:49;;;;;;;7.97;5.53;;;;;;;;;;5121379;27;20466;-71
2022/09/27 12:35:18;;;;;;;5.10;1.53;;;;;;;;;;5133914;27;21131;-70
2022/09/27 12:37:49;;;;;;;3.40;2.13;;;;;;;;;;5126455;27;20496;-71
2022/09/27 12:40:19;;;;;;;3.00;1.40;;;;;;;;;;5130772;27;20779;-70
2022/09/27 12:42:50;;;;;;;2.03;1.43;;;;;;;;;;5116976;28;20489;-70
2022/09/27 12:45:20;;;;;;;3.27;1.60;;;;;;;;;;5112255;28;20557;-70
2022/09/27 12:47:57;;;;;;;2.33;1.60;;;;;;;;;;5113912;28;20458;-69
2022/09/27 12:50:30;;;;;;;2.93;1.93;;;;;;;;;;5110873;28;20514;-69
2022/09/27 12:52:59;;;;;;;2.10;1.80;;;;;;;;;;5112488;28;20442;-68
2022/09/27 12:55:41;;;;;;;2.60;1.70;;;;;;;;;;5109315;28;20486;-68
2022/09/27 12:58:18;;;;;;;2.40;1.70;;;;;;;;;;5107960;28;20505;-69
2022/09/27 13:00:48;;;;;;;2.33;1.37;;;;;;;;;;5110472;28;21086;-69
2022/09/27 13:03:31;;;;;;;3.40;1.40;;;;;;;;;;5122365;27;20780;-69
2022/09/27 13:06:20;;;;;;;4.63;3.00;;;;;;;;;;5133645;27;20609;-67
2022/09/27 13:09:21;;;;;;;3.43;2.00;;;;;;;;;;5122838;27;20458;-70
2022/09/27 13:14:44;;;;;;;2.30;1.93;;;;;;;;;;5111707;28;20439;-69
2022/09/27 13:17:32;;;;;;;2.33;1.80;;;;;;;;;;5116783;28;20454;-69
2022/09/27 13:19:59;;;;;;;3.87;1.57;;;;;;;;;;5125867;27;20493;-70
2022/09/27 13:22:40;;;;;;;1.83;1.40;;;;;;;;;;5112674;28;20454;-68
2022/09/27 13:25:28;;;;;;;2.80;1.27;;;;;;;;;;5115250;28;20458;-69
2022/09/27 13:27:55;;;;;;;2.63;1.73;;;;;;;;;;5128023;27;20465;-69
2022/09/27 13:30:49;;;;;;;5.20;1.50;;;;;;;;;;5129381;27;20449;-69
2022/09/27 13:33:33;;;;;;;2.47;1.70;;;;;;;;;;5131310;27;21012;-70
2022/09/27 13:39:05;;;;;;;2.30;1.53;;;;;;;;;;5125019;27;20449;-68
2022/09/27 13:41:42;;;;;;;2.10;1.00;;;;;;;;;;5129058;27;20561;-69
2022/09/27 13:44:31;;;;;;;3.87;1.87;;;;;;;;;;5129760;27;20489;-69
2022/09/27 13:47:06;;;;;;;2.77;1.77;;;;;;;;;;5131207;27;20456;-69
2022/09/27 13:49:37;;;;;;;2.53;1.87;;;;;;;;;;5131209;27;20464;-69
2022/09/27 13:52:24;;;;;;;2.67;1.30;;;;;;;;;;5124732;27;20718;-68
2022/09/27 13:54:56;;;;;;;1.90;1.30;;;;;;;;;;5110438;28;21124;-71
2022/09/27 13:57:44;;;;;;;2.10;1.50;;;;;;;;;;5120864;27;20819;-70
2022/09/27 14:00:13;;;;;;;2.90;1.20;;;;;;;;;;5110327;28;20454;-69
2022/09/27 14:02:45;;;;;;;2.47;1.23;;;;;;;;;;5120671;27;20458;-69
2022/09/27 14:05:18;;;;;;;2.27;1.77;;;;;;;;;;5118743;27;20518;-69
2022/09/27 14:07:58;;;;;;;2.97;1.63;;;;;;;;;;5123668;27;20441;-68
2022/09/27 14:10:27;;;;;;;3.60;1.70;;;;;;;;;;5130471;27;20468;-68
2022/09/27 14:12:55;;;;;;;4.40;2.40;;;;;;;;;;5112392;27;20461;-68
2022/09/27 14:18:13;;;;;;;3.30;2.17;;;;;;;;;;5113788;28;20460;-68
2022/09/27 14:20:43;;;;;;;2.50;1.27;;;;;;;;;;5114403;28;20458;-68
2022/09/27 14:23:16;;;;;;;1.90;1.17;;;;;;;;;;5117152;27;20549;-68
2022/09/27 14:25:46;;;;;;;2.80;1.60;;;;;;;;;;5120485;28;20473;-68
2022/09/27 14:28:21;;;;;;;3.00;1.63;;;;;;;;;;5127392;27;20874;-68
2022/09/27 14:30:49;;;;;;;1.87;1.10;;;;;;;;;;5123678;27;20552;-69
2022/09/27 14:33:35;;;;;;;3.10;1.47;;;;;;;;;;5114101;27;20537;-68
2022/09/27 14:38:48;;;;;;;3.40;1.33;;;;;;;;;;5116562;27;20505;-69
2022/09/27 14:41:17;;;;;;;2.00;1.23;;;;;;;;;;5134635;27;20456;-68
2022/09/27 14:43:48;;;;;;;2.07;1.30;;;;;;;;;;5129886;27;20464;-67
2022/09/27 14:46:31;;;;;;;2.80;1.93;;;;;;;;;;5120995;28;21056;-69
2022/09/27 14:49:01;;;;;;;3.60;1.50;;;;;;;;;;5111450;28;20517;-68
2022/09/27 14:51:29;;;;;;;5.70;1.40;;;;;;;;;;5113520;28;20462;-68
2022/09/27 14:54:05;;;;;;;3.27;1.90;;;;;;;;;;5121724;28;20942;-69
2022/09/27 14:56:40;;;;;;;5.30;2.10;;;;;;;;;;5128372;27;20489;-68
2022/09/27 14:59:16;;;;;;;5.33;2.27;;;;;;;;;;5117702;28;20490;-69
2022/09/27 15:01:51;;;;;;;6.07;2.83;;;;;;;;;;5112640;28;20867;-68
2022/09/27 15:04:19;;;;;;;5.37;1.70;;;;;;;;;;5119565;27;20462;-69
2022/09/27 15:06:48;;;;;;;5.03;2.00;;;;;;;;;;5129375;27;20475;-68
2022/09/27 15:09:19;;;;;;;5.90;2.63;;;;;;;;;;5121231;27;20534;-68
2022/09/27 15:11:50;;;;;;;9.70;4.17;;;;;;;;;;5114591;28;20450;-68
2022/09/27 15:14:20;;;;;;;5.07;2.50;;;;;;;;;;5116189;28;20482;-69
2022/09/27 15:16:48;;;;;;;2.40;1.73;;;;;;;;;;5128569;27;20572;-69
2022/09/27 15:19:17;;;;;;;3.20;1.97;;;;;;;;;;5128647;27;20950;-72
2022/09/27 15:21:45;;;;;;;4.10;3.67;;;;;;;;;;5132559;27;20454;-69
2022/09/27 15:24:31;;;;;;;4.63;1.93;;;;;;;;;;5133792;27;20480;-69
2022/09/27 15:27:04;;;;;;;6.87;2.77;;;;;;;;;;5114358;28;20896;-69
2022/09/27 15:29:59;;;;;;;3.07;2.20;;;;;;;;;;5129982;27;20610;-68